Glenrock, WY (82637)

6:36 AM MST on November 24, 2017 (GMT -0700)
MKDRC | | Change Station
Active Advisory: High Wind Warning

Elev 5061 ft 42.84 °N, 105.86 °W | Updated 190 days ago

Clear
Clear
55.0 °F
Feels Like 55.0 °F
N
21.0
Wind Variable Wind from WSW
Gusts 31.0 mph

Today
High -- | Low -- °F
--% Chance of Precip.
Yesterday
High -- | Low -- °F
Precip. -- in
Pressure 29.59 in
Visibility 10.0 miles
Clouds Clear
Dew Point 35 °F
Humidity 46%
Rainfall 0.00 in
Snow Depth Not available.
7:06 AM 4:33 PM
Waxing Crescent, 30% visible
METAR KDGW 241253Z AUTO 28027G40KT 10SM CLR 13/01 A2971 RMK AO2 PK WND 27040/1250 SLP019 T01330006 $
Pressure 29.59 in
Visibility 10.0 miles
Clouds Clear
Dew Point 35 °F
Humidity 46%
Rainfall 0.00 in
Snow Depth Not available.
7:06 AM 4:33 PM
Waxing Crescent, 30% visible
METAR KDGW 241253Z AUTO 28027G40KT 10SM CLR 13/01 A2971 RMK AO2 PK WND 27040/1250 SLP019 T01330006 $

Get Your Daily Forecast Email!

Thanks for signing up!

Be on the lookout for a verification email in your inbox.

You'll start receiving severe weather alerts in your inbox..

×

10-Day Weather Forecast

Almanac

Astronomy

Nov. 24, 2017 Rise Set
Actual Time
Civil Twilight
Nautical Twilight
Astronomical Twilight
Moon
Length of Visible Light
Length of Day
Tomorrow will be .
, % of the Moon is Illuminated

Today's Extremes

State Highs State Lows

Community

WunderPhotos

Category 6

Welcome to Category 6. This is the collective home for Weather Underground's featured writeups by Dr. Jeff Masters (right), Bob Henson (left), Chris Burt, and other regular contributors.

Nearby

Air Quality

  Air Quality AQ Index Pollutant
Not available.

Snow Depth

Station Depth Elevation

Earthquake Activity

City Distance Mag. Time & Date
Minimum magnitude displayed is 2.5.

Coastal Water Temperatures

Place Temperature

Stations

Nearby Weather Stations

Station Location Temp. Windchill Dew Point Humidity Wind Precip. Elev Updated Type
                   

Watches & Warnings

High Wind Warning
Issued: 6:34 AM MST Nov. 24, 2017 – National Weather Service

... High Wind Warning remains in effect until noon MST today...

* timing... until noon MST today.

* Winds... west 35 to 45 mph with occasional gusts up to 60 mph.

* Impacts... mainly to transportation. There will be a blow over
risk to light weight and high profile vehicles, especially on
north-to-south oriented sections of roads.

Precautionary/preparedness actions...

A High Wind Warning means a hazardous high wind event is expected
or occurring. Sustained wind speeds of at least 40 mph or gusts
of 58 mph or more can lead to property damage.



Clh